Time,TemperatureF,DewpointF,PressureIn,WindDirection,WindDirectionDegrees,WindSpeedMPH,WindSpeedGustMPH,Humidity,HourlyPrecipIn,Conditions,Clouds,dailyrainin,SoftwareType,DateUTC
2013-01-20 13:07:00,73.2,65.2,30.03,NNW,338,1.0,1.0,76,0.00,,,0.01,Wunderground v.1.15,2013-01-20 18:07:00,
2013-01-20 13:08:00,73.2,65.2,30.03,NNW,345,3.0,5.0,76,0.00,,,0.01,Wunderground v.1.15,2013-01-20 18:08:00,
2013-01-20 13:13:00,73.9,65.9,30.03,North,4,3.0,12.0,76,0.00,,,0.01,Wunderground v.1.15,2013-01-20 18:13:00,
2013-01-20 13:18:00,73.2,65.2,30.03,NNW,330,2.0,12.0,76,0.00,,,0.01,Wunderground v.1.15,2013-01-20 18:18:00,
2013-01-20 13:23:00,72.8,65.2,30.03,North,356,1.0,11.0,77,0.00,,,0.01,Wunderground v.1.15,2013-01-20 18:23:00,
2013-01-20 13:28:00,72.5,65.2,30.03,North,1,0.0,11.0,78,0.00,,,0.01,Wunderground v.1.15,2013-01-20 18:28:00,
2013-01-20 13:34:00,72.1,65.2,30.03,NNE,14,0.0,9.0,79,0.00,,,0.01,Wunderground v.1.15,2013-01-20 18:34:00,
2013-01-20 13:39:00,72.1,65.2,30.03,ENE,75,6.0,9.0,79,0.00,,,0.01,Wunderground v.1.15,2013-01-20 18:39:00,
2013-01-20 13:44:00,72.0,65.5,30.03,NNE,12,6.0,11.0,80,0.00,,,0.01,Wunderground v.1.15,2013-01-20 18:44:00,
2013-01-20 13:49:00,72.8,65.9,30.03,North,0,2.0,4.0,79,0.00,,,0.01,Wunderground v.1.15,2013-01-20 18:49:00,
2013-01-20 13:54:00,73.0,65.4,30.03,North,351,7.0,12.0,77,0.00,,,0.01,Wunderground v.1.15,2013-01-20 18:54:00,
2013-01-20 13:59:00,73.0,65.7,30.02,ENE,69,5.0,8.0,78,0.00,,,0.01,Wunderground v.1.15,2013-01-20 18:59:00,
2013-01-20 14:04:00,72.8,65.2,30.02,North,359,4.0,11.0,77,0.00,,,0.01,Wunderground v.1.15,2013-01-20 19:04:00,
2013-01-20 14:10:00,72.8,65.9,30.02,NNW,347,10.0,10.0,79,0.00,,,0.01,Wunderground v.1.15,2013-01-20 19:10:00,
2013-01-20 14:15:00,72.5,65.6,30.01,NE,45,0.0,10.0,79,0.00,,,0.01,Wunderground v.1.15,2013-01-20 19:15:00,
2013-01-20 14:20:00,71.8,65.7,30.01,North,4,3.0,3.0,81,0.00,,,0.01,Wunderground v.1.15,2013-01-20 19:20:00,
2013-01-20 14:25:00,71.3,64.4,30.01,North,0,6.0,12.0,79,0.00,,,0.01,Wunderground v.1.15,2013-01-20 19:25:00,
2013-01-20 14:30:00,71.3,64.4,30.01,North,8,6.0,9.0,79,0.00,,,0.01,Wunderground v.1.15,2013-01-20 19:30:00,
2013-01-20 14:36:00,71.5,65.0,30.01,ENE,65,3.0,9.0,80,0.00,,,0.01,Wunderground v.1.15,2013-01-20 19:36:00,
2013-01-20 14:41:00,71.1,64.6,30.01,North,9,8.0,13.0,80,0.00,,,0.01,Wunderground v.1.15,2013-01-20 19:41:00,
2013-01-20 14:46:00,70.9,64.8,30.01,North,6,3.0,13.0,81,0.00,,,0.01,Wunderground v.1.15,2013-01-20 19:46:00,
2013-01-20 14:51:00,70.8,64.7,30.01,North,359,7.0,7.0,81,0.00,,,0.01,Wunderground v.1.15,2013-01-20 19:51:00,
2013-01-20 14:56:00,70.6,64.8,30.01,NW,316,2.0,11.0,82,0.00,,,0.01,Wunderground v.1.15,2013-01-20 19:56:00,
2013-01-20 15:01:00,70.4,64.6,30.01,NE,46,6.0,9.0,82,0.00,,,0.01,Wunderground v.1.15,2013-01-20 20:01:00,
2013-01-20 15:07:00,70.3,64.5,30.01,North,0,5.0,11.0,82,0.00,,,0.01,Wunderground v.1.15,2013-01-20 20:07:00,
2013-01-20 15:12:00,70.4,64.3,30.01,North,6,0.0,7.0,81,0.00,,,0.01,Wunderground v.1.15,2013-01-20 20:12:00,
2013-01-20 15:17:00,70.4,64.6,30.01,NNE,30,2.0,10.0,82,0.00,,,0.01,Wunderground v.1.15,2013-01-20 20:17:00,
2013-01-20 15:22:00,70.1,64.3,30.01,North,359,3.0,9.0,82,0.00,,,0.01,Wunderground v.1.15,2013-01-20 20:22:00,
2013-01-20 15:28:00,70.4,65.0,30.01,North,1,0.0,10.0,83,0.00,,,0.01,Wunderground v.1.15,2013-01-20 20:28:00,
2013-01-20 15:33:00,70.3,64.9,30.01,NNE,16,3.0,10.0,83,0.00,,,0.01,Wunderground v.1.15,2013-01-20 20:33:00,
2013-01-20 15:38:00,70.6,65.5,30.01,North,4,0.0,10.0,84,0.00,,,0.01,Wunderground v.1.15,2013-01-20 20:38:00,
2013-01-20 15:43:00,70.8,65.4,30.01,North,3,2.0,8.0,83,0.00,,,0.01,Wunderground v.1.15,2013-01-20 20:43:00,
2013-01-20 15:48:00,70.8,65.4,30.01,North,352,0.0,8.0,83,0.00,,,0.01,Wunderground v.1.15,2013-01-20 20:48:00,
2013-01-20 15:53:00,70.9,65.1,30.01,NNE,15,0.0,5.0,82,0.00,,,0.01,Wunderground v.1.15,2013-01-20 20:53:00,
2013-01-20 15:58:00,70.8,65.4,30.01,North,8,0.0,5.0,83,0.00,,,0.01,Wunderground v.1.15,2013-01-20 20:58:00,
2013-01-20 16:03:00,70.4,65.0,30.01,North,359,5.0,7.0,83,0.00,,,0.01,Wunderground v.1.15,2013-01-20 21:03:00,
2013-01-20 16:08:00,70.4,65.3,30.01,North,354,4.0,7.0,84,0.00,,,0.01,Wunderground v.1.15,2013-01-20 21:08:00,
2013-01-20 16:13:00,70.3,65.6,30.01,North,359,0.0,4.0,85,0.00,,,0.01,Wunderground v.1.15,2013-01-20 21:13:00,
2013-01-20 16:18:00,70.4,65.3,30.01,North,0,3.0,7.0,84,0.00,,,0.01,Wunderground v.1.15,2013-01-20 21:18:00,
2013-01-20 16:23:00,70.3,65.2,30.01,North,351,3.0,9.0,84,0.00,,,0.01,Wunderground v.1.15,2013-01-20 21:23:00,
2013-01-20 16:28:00,70.4,65.3,30.01,North,0,6.0,15.0,84,0.00,,,0.01,Wunderground v.1.15,2013-01-20 21:28:00,
2013-01-20 16:33:00,70.6,65.5,30.01,NNE,30,3.0,5.0,84,0.00,,,0.01,Wunderground v.1.15,2013-01-20 21:33:00,
2013-01-20 16:38:00,70.4,65.0,30.01,North,1,4.0,10.0,83,0.00,,,0.01,Wunderground v.1.15,2013-01-20 21:38:00,
2013-01-20 16:44:00,70.4,65.3,30.01,NNE,27,3.0,10.0,84,0.00,,,0.01,Wunderground v.1.15,2013-01-20 21:44:00,
2013-01-20 16:48:00,70.3,65.2,30.01,North,1,6.0,11.0,84,0.00,,,0.01,Wunderground v.1.15,2013-01-20 21:48:00,
2013-01-20 16:53:00,70.1,65.4,30.01,North,1,5.0,12.0,85,0.00,,,0.01,Wunderground v.1.15,2013-01-20 21:53:00,
2013-01-20 16:58:00,69.3,64.6,30.01,North,0,3.0,12.0,85,0.00,,,0.01,Wunderground v.1.15,2013-01-20 21:58:00,
2013-01-20 17:03:00,68.9,64.5,30.01,North,359,1.0,9.0,86,0.00,,,0.01,Wunderground v.1.15,2013-01-20 22:03:00,
2013-01-20 17:09:00,68.9,64.5,30.01,NNE,13,0.0,9.0,86,0.00,,,0.01,Wunderground v.1.15,2013-01-20 22:09:00,
2013-01-20 17:14:00,68.8,64.8,30.01,North,11,3.0,6.0,87,0.00,,,0.01,Wunderground v.1.15,2013-01-20 22:14:00,
2013-01-20 17:19:00,68.6,64.6,30.01,North,359,5.0,6.0,87,0.00,,,0.01,Wunderground v.1.15,2013-01-20 22:19:00,
2013-01-20 17:24:00,68.6,64.6,30.01,NE,39,0.0,6.0,87,0.00,,,0.01,Wunderground v.1.15,2013-01-20 22:24:00,
2013-01-20 17:29:00,68.6,64.6,30.01,North,1,2.0,9.0,87,0.00,,,0.01,Wunderground v.1.15,2013-01-20 22:29:00,
2013-01-20 17:34:00,68.6,64.9,30.01,NNE,18,0.0,7.0,88,0.00,,,0.01,Wunderground v.1.15,2013-01-20 22:34:00,
2013-01-20 17:39:00,68.4,64.7,30.01,North,0,2.0,13.0,88,0.00,,,0.01,Wunderground v.1.15,2013-01-20 22:39:00,
2013-01-20 17:44:00,68.1,64.7,30.02,North,359,7.0,10.0,89,0.00,,,0.01,Wunderground v.1.15,2013-01-20 22:44:00,
2013-01-20 17:49:00,68.3,64.9,30.02,North,6,0.0,10.0,89,0.00,,,0.01,Wunderground v.1.15,2013-01-20 22:49:00,
2013-01-20 17:54:00,67.9,64.5,30.02,North,0,5.0,11.0,89,0.00,,,0.01,Wunderground v.1.15,2013-01-20 22:54:00,
2013-01-20 17:59:00,67.9,64.5,30.02,North,350,5.0,11.0,89,0.00,,,0.01,Wunderground v.1.15,2013-01-20 22:59:00,
2013-01-20 18:04:00,68.1,64.7,30.02,North,1,3.0,9.0,89,0.00,,,0.01,Wunderground v.1.15,2013-01-20 23:04:00,
2013-01-20 18:09:00,67.8,64.4,30.02,North,1,3.0,9.0,89,0.00,,,0.01,Wunderground v.1.15,2013-01-20 23:09:00,
2013-01-20 18:14:00,68.1,64.7,30.03,North,357,4.0,11.0,89,0.00,,,0.01,Wunderground v.1.15,2013-01-20 23:14:00,
2013-01-20 18:19:00,67.9,64.5,30.03,NNE,15,0.0,11.0,89,0.00,,,0.01,Wunderground v.1.15,2013-01-20 23:19:00,
2013-01-20 18:24:00,67.6,64.2,30.03,North,354,4.0,5.0,89,0.00,,,0.01,Wunderground v.1.15,2013-01-20 23:24:00,
2013-01-20 18:29:00,67.6,64.2,30.03,North,1,5.0,7.0,89,0.00,,,0.01,Wunderground v.1.15,2013-01-20 23:29:00,
2013-01-20 18:34:00,67.4,64.0,30.03,North,1,5.0,7.0,89,0.00,,,0.01,Wunderground v.1.15,2013-01-20 23:34:00,
2013-01-20 18:39:00,67.3,63.9,30.03,North,1,3.0,8.0,89,0.00,,,0.01,Wunderground v.1.15,2013-01-20 23:39:00,
2013-01-20 18:44:00,67.1,63.7,30.03,North,6,0.0,7.0,89,0.00,,,0.01,Wunderground v.1.15,2013-01-20 23:44:00,
2013-01-20 18:49:00,67.1,64.1,30.03,North,5,0.0,7.0,90,0.00,,,0.01,Wunderground v.1.15,2013-01-20 23:49:00,
2013-01-20 18:54:00,66.8,63.8,30.03,North,356,0.0,8.0,90,0.00,,,0.01,Wunderground v.1.15,2013-01-20 23:54:00,
2013-01-20 18:59:00,66.8,63.8,30.03,North,359,1.0,8.0,90,0.00,,,0.01,Wunderground v.1.15,2013-01-20 23:59:00,
2013-01-20 19:04:00,66.9,64.2,30.03,North,1,4.0,6.0,91,0.00,,,0.01,Wunderground v.1.15,2013-01-21 00:04:00,
2013-01-20 19:09:00,67.1,64.4,30.03,North,8,3.0,9.0,91,0.00,,,0.01,Wunderground v.1.15,2013-01-21 00:09:00,
2013-01-20 19:14:00,67.1,64.4,30.03,North,1,1.0,6.0,91,0.00,,,0.01,Wunderground v.1.15,2013-01-21 00:14:00,
2013-01-20 19:19:00,66.9,64.2,30.03,North,359,2.0,8.0,91,0.00,,,0.01,Wunderground v.1.15,2013-01-21 00:19:00,
2013-01-20 19:25:00,66.9,64.2,30.03,North,355,0.0,4.0,91,0.00,,,0.01,Wunderground v.1.15,2013-01-21 00:25:00,
2013-01-20 19:30:00,67.1,64.4,30.03,NE,48,0.0,0.0,91,0.00,,,0.01,Wunderground v.1.15,2013-01-21 00:30:00,
2013-01-20 19:35:00,66.8,64.1,30.03,NNW,347,4.0,7.0,91,0.00,,,0.01,Wunderground v.1.15,2013-01-21 00:35:00,
2013-01-20 19:40:00,66.9,64.2,30.03,North,359,4.0,4.0,91,0.00,,,0.01,Wunderground v.1.15,2013-01-21 00:40:00,
2013-01-20 19:45:00,66.6,63.9,30.03,North,359,0.0,5.0,91,0.00,,,0.01,Wunderground v.1.15,2013-01-21 00:45:00,
2013-01-20 19:50:00,66.8,64.1,30.03,North,0,0.0,1.0,91,0.00,,,0.01,Wunderground v.1.15,2013-01-21 00:50:00,
2013-01-20 19:55:00,66.4,64.0,30.03,NNE,14,0.0,4.0,92,0.00,,,0.01,Wunderground v.1.15,2013-01-21 00:55:00,
2013-01-20 20:00:00,66.4,64.0,30.03,North,351,0.0,0.0,92,0.00,,,0.01,Wunderground v.1.15,2013-01-21 01:00:00,
2013-01-20 20:05:00,66.6,64.2,30.03,North,0,0.0,4.0,92,0.00,,,0.01,Wunderground v.1.15,2013-01-21 01:05:00,
2013-01-20 20:10:00,66.3,63.9,30.03,North,359,3.0,6.0,92,0.00,,,0.01,Wunderground v.1.15,2013-01-21 01:10:00,
2013-01-20 20:15:00,66.6,64.2,30.03,North,11,0.0,6.0,92,0.00,,,0.01,Wunderground v.1.15,2013-01-21 01:15:00,
2013-01-20 20:20:00,66.6,64.2,30.03,North,3,0.0,1.0,92,0.00,,,0.01,Wunderground v.1.15,2013-01-21 01:20:00,
2013-01-20 20:25:00,66.8,64.4,30.03,North,0,0.0,6.0,92,0.00,,,0.01,Wunderground v.1.15,2013-01-21 01:25:00,
2013-01-20 20:30:00,66.4,64.0,30.03,North,349,3.0,3.0,92,0.00,,,0.01,Wunderground v.1.15,2013-01-21 01:30:00,
2013-01-20 20:35:00,66.6,64.2,30.03,North,0,0.0,5.0,92,0.00,,,0.01,Wunderground v.1.15,2013-01-21 01:35:00,
2013-01-20 20:40:00,66.4,64.0,30.03,North,352,2.0,5.0,92,0.00,,,0.01,Wunderground v.1.15,2013-01-21 01:40:00,
2013-01-20 20:45:00,66.8,64.4,30.03,North,1,0.0,5.0,92,0.00,,,0.01,Wunderground v.1.15,2013-01-21 01:45:00,
2013-01-20 20:50:00,66.6,64.2,30.03,North,359,0.0,2.0,92,0.00,,,0.01,Wunderground v.1.15,2013-01-21 01:50:00,
2013-01-20 20:56:00,66.6,64.2,30.03,North,357,1.0,2.0,92,0.00,,,0.01,Wunderground v.1.15,2013-01-21 01:56:00,
2013-01-20 21:01:00,66.8,64.4,30.03,North,1,0.0,0.0,92,0.00,,,0.01,Wunderground v.1.15,2013-01-21 02:01:00,
2013-01-20 21:06:00,66.9,64.5,30.03,North,1,0.0,0.0,92,0.00,,,0.01,Wunderground v.1.15,2013-01-21 02:06:00,
2013-01-20 21:11:00,66.9,64.5,30.03,North,0,0.0,0.0,92,0.00,,,0.01,Wunderground v.1.15,2013-01-21 02:11:00,
2013-01-20 21:16:00,67.1,65.0,30.03,North,0,0.0,1.0,93,0.00,,,0.01,Wunderground v.1.15,2013-01-21 02:16:00,
2013-01-20 21:21:00,67.1,65.0,30.03,North,0,0.0,0.0,93,0.00,,,0.01,Wunderground v.1.15,2013-01-21 02:21:00,
2013-01-20 21:26:00,67.3,65.2,30.03,North,0,0.0,0.0,93,0.00,,,0.01,Wunderground v.1.15,2013-01-21 02:26:00,
2013-01-20 21:31:00,67.4,65.3,30.04,North,1,0.0,5.0,93,0.00,,,0.01,Wunderground v.1.15,2013-01-21 02:31:00,
2013-01-20 21:36:00,67.6,65.5,30.04,North,11,0.0,5.0,93,0.00,,,0.01,Wunderground v.1.15,2013-01-21 02:36:00,
2013-01-20 21:41:00,67.6,65.5,30.04,North,1,0.0,0.0,93,0.00,,,0.01,Wunderground v.1.15,2013-01-21 02:41:00,
2013-01-20 21:46:00,67.6,65.2,30.04,North,1,0.0,0.0,92,0.00,,,0.01,Wunderground v.1.15,2013-01-21 02:46:00,
2013-01-20 21:51:00,67.6,65.2,30.04,North,1,0.0,0.0,92,0.00,,,0.01,Wunderground v.1.15,2013-01-21 02:51:00,
2013-01-20 21:56:00,67.6,65.2,30.04,North,1,0.0,0.0,92,0.00,,,0.01,Wunderground v.1.15,2013-01-21 02:56:00,
2013-01-20 22:02:00,67.6,65.2,30.04,North,1,0.0,0.0,92,0.00,,,0.01,Wunderground v.1.15,2013-01-21 03:02:00,
2013-01-20 22:07:00,67.6,65.2,30.04,North,0,0.0,0.0,92,0.00,,,0.01,Wunderground v.1.15,2013-01-21 03:07:00,
2013-01-20 22:12:00,67.4,65.0,30.04,North,359,2.0,5.0,92,0.00,,,0.01,Wunderground v.1.15,2013-01-21 03:12:00,
2013-01-20 22:17:00,67.4,65.0,30.04,North,356,0.0,5.0,92,0.00,,,0.01,Wunderground v.1.15,2013-01-21 03:17:00,
2013-01-20 22:22:00,67.6,65.2,30.04,North,358,3.0,3.0,92,0.00,,,0.01,Wunderground v.1.15,2013-01-21 03:22:00,
2013-01-20 22:27:00,67.9,65.5,30.04,North,1,0.0,5.0,92,0.00,,,0.01,Wunderground v.1.15,2013-01-21 03:27:00,
2013-01-20 22:32:00,67.9,65.5,30.04,North,1,0.0,1.0,92,0.00,,,0.01,Wunderground v.1.15,2013-01-21 03:32:00,
2013-01-20 22:37:00,67.9,65.5,30.04,North,1,0.0,4.0,92,0.00,,,0.01,Wunderground v.1.15,2013-01-21 03:37:00,
2013-01-20 22:42:00,68.1,65.7,30.04,North,1,0.0,0.0,92,0.00,,,0.01,Wunderground v.1.15,2013-01-21 03:42:00,
2013-01-20 22:47:00,68.1,65.7,30.03,North,1,0.0,0.0,92,0.00,,,0.01,Wunderground v.1.15,2013-01-21 03:47:00,
2013-01-20 22:52:00,67.9,65.5,30.03,North,1,0.0,0.0,92,0.00,,,0.01,Wunderground v.1.15,2013-01-21 03:52:00,
2013-01-20 22:57:00,67.9,65.5,30.03,North,1,0.0,0.0,92,0.00,,,0.01,Wunderground v.1.15,2013-01-21 03:57:00,
2013-01-20 23:02:00,68.1,65.7,30.03,North,4,0.0,0.0,92,0.00,,,0.01,Wunderground v.1.15,2013-01-21 04:02:00,
2013-01-20 23:07:00,68.1,65.7,30.03,North,4,0.0,0.0,92,0.00,,,0.01,Wunderground v.1.15,2013-01-21 04:07:00,
2013-01-20 23:12:00,68.3,65.9,30.03,North,6,0.0,0.0,92,0.00,,,0.01,Wunderground v.1.15,2013-01-21 04:12:00,
2013-01-20 23:18:00,68.3,65.9,30.03,North,7,0.0,0.0,92,0.00,,,0.01,Wunderground v.1.15,2013-01-21 04:18:00,
2013-01-20 23:23:00,68.4,66.0,30.03,North,7,0.0,0.0,92,0.00,,,0.01,Wunderground v.1.15,2013-01-21 04:23:00,
2013-01-20 23:28:00,68.4,66.0,30.03,North,7,0.0,0.0,92,0.00,,,0.01,Wunderground v.1.15,2013-01-21 04:28:00,
2013-01-20 23:33:00,68.4,66.0,30.03,North,7,0.0,0.0,92,0.00,,,0.01,Wunderground v.1.15,2013-01-21 04:33:00,
2013-01-20 23:38:00,68.4,66.0,30.03,North,8,0.0,0.0,92,0.00,,,0.01,Wunderground v.1.15,2013-01-21 04:38:00,
2013-01-20 23:43:00,68.4,66.0,30.03,North,8,0.0,0.0,92,0.00,,,0.01,Wunderground v.1.15,2013-01-21 04:43:00,
2013-01-20 23:48:00,68.4,66.0,30.03,North,8,0.0,0.0,92,0.00,,,0.01,Wunderground v.1.15,2013-01-21 04:48:00,
2013-01-20 23:53:00,68.4,66.0,30.03,North,8,0.0,0.0,92,0.00,,,0.01,Wunderground v.1.15,2013-01-21 04:53:00,
2013-01-20 23:58:00,68.4,66.0,30.03,North,8,0.0,0.0,92,0.00,,,0.01,Wunderground v.1.15,2013-01-21 04:58:00,